Time;durP1;ratioP1;P1;durP2;ratioP2;P2;SDS_P1;SDS_P2;PMS_P1;PMS_P2;Temp;Humidity;BMP_temperature;BMP_pressure;BME280_temperature;BME280_humidity;BME280_pressure;Samples;Min_cycle;Max_cycle;Signal;HPM_P1;HPM_P2
2022/11/11 00:03:58;;;;;;;1.20;0.90;;;4.80;99.90;;;;;;21101114;28;20044;-66
2022/11/11 00:14:20;;;;;;;0.70;0.60;;;4.80;99.90;;;;;;20994876;28;20070;-58
2022/11/11 00:56:41;;;;;;;0.40;0.30;;;4.90;99.90;;;;;;21053655;28;20094;-53
2022/11/11 01:07:03;;;;;;;0.95;0.60;;;4.80;99.90;;;;;;21057032;28;20040;-68
2022/11/11 01:17:24;;;;;;;0.90;0.50;;;5.10;99.90;;;;;;21063592;28;20082;-54
2022/11/11 01:27:45;;;;;;;1.33;0.90;;;4.90;99.90;;;;;;21055313;28;20061;-65
2022/11/11 01:38:10;;;;;;;1.77;1.00;;;4.70;99.90;;;;;;21054899;28;20085;-57
2022/11/11 01:59:30;;;;;;;0.38;0.30;;;4.60;99.90;;;;;;21070754;28;20432;-56
2022/11/11 02:09:53;;;;;;;1.23;0.93;;;4.70;99.90;;;;;;21036150;28;20089;-56
2022/11/11 02:20:20;;;;;;;1.58;1.27;;;4.60;99.90;;;;;;21053001;28;20028;-54
2022/11/11 02:30:42;;;;;;;1.38;0.60;;;4.50;99.90;;;;;;21064764;28;20101;-66
2022/11/11 02:51:43;;;;;;;0.93;0.43;;;4.50;99.90;;;;;;21063689;28;20040;-55
2022/11/11 03:02:05;;;;;;;0.70;0.60;;;4.60;99.90;;;;;;21036928;28;20032;-66
2022/11/11 03:12:26;;;;;;;1.73;0.77;;;4.50;99.90;;;;;;21051560;28;20054;-54
2022/11/11 03:23:01;;;;;;;1.15;0.80;;;4.40;99.90;;;;;;21045095;28;20032;-66
2022/11/11 03:33:22;;;;;;;1.85;0.60;;;4.40;99.90;;;;;;21063703;28;20375;-56
2022/11/11 03:43:43;;;;;;;0.85;0.60;;;4.40;99.90;;;;;;21064228;28;20052;-57
2022/11/11 03:54:04;;;;;;;1.17;0.40;;;4.50;99.90;;;;;;21063007;28;20048;-55
2022/11/11 04:25:49;;;;;;;2.13;0.45;;;4.70;99.90;;;;;;21145128;28;20092;-56
2022/11/11 04:36:10;;;;;;;1.63;0.63;;;4.50;99.90;;;;;;21143638;28;20040;-66
2022/11/11 04:46:31;;;;;;;0.85;0.50;;;4.30;99.90;;;;;;21092113;28;20036;-55
2022/11/11 04:56:53;;;;;;;2.13;1.00;;;4.20;99.90;;;;;;21055215;28;20070;-55
2022/11/11 05:21:19;;;;;;;1.05;0.85;;;4.40;99.90;;;;;;21133541;28;20044;-66
2022/11/11 05:28:35;;;;;;;2.35;0.95;;;4.40;99.90;;;;;;21134267;28;20039;-57
2022/11/11 05:38:57;;;;;;;3.53;0.93;;;4.50;99.90;;;;;;21099319;28;20028;-56
2022/11/11 05:49:18;;;;;;;1.00;0.52;;;4.40;99.90;;;;;;21054408;28;20117;-66
2022/11/11 05:59:39;;;;;;;1.05;0.60;;;4.20;99.90;;;;;;21123577;28;20061;-55
2022/11/11 06:10:29;;;;;;;1.05;0.60;;;4.20;99.90;;;;;;21103910;28;20035;-66
2022/11/11 06:20:41;;;;;;;;;;;4.20;99.90;;;;;;21125905;28;20115;-57
2022/11/11 06:31:02;;;;;;;1.23;0.90;;;4.00;99.90;;;;;;21052045;28;20266;-55
2022/11/11 06:41:24;;;;;;;1.58;1.15;;;4.20;99.90;;;;;;21044488;28;20055;-66
2022/11/11 06:51:45;;;;;;;2.72;1.65;;;4.40;99.90;;;;;;21051024;28;20052;-56
2022/11/11 07:02:12;;;;;;;2.58;1.48;;;4.60;99.90;;;;;;21030129;28;20030;-56
2022/11/11 07:12:32;;;;;;;3.92;1.60;;;4.80;99.90;;;;;;20996564;28;20040;-56
2022/11/11 07:22:53;;;;;;;2.25;0.82;;;5.10;99.90;;;;;;21047547;28;20036;-59
2022/11/11 07:33:15;;;;;;;1.30;1.00;;;5.70;99.90;;;;;;21082090;28;20485;-64
2022/11/11 07:43:36;;;;;;;1.08;0.50;;;6.60;99.90;;;;;;21069385;28;20035;-59
2022/11/11 07:53:58;;;;;;;2.05;0.40;;;6.90;99.90;;;;;;21062991;28;20060;-58
2022/11/11 08:04:20;;;;;;;0.70;0.50;;;7.80;99.90;;;;;;21039675;28;20101;-61
2022/11/11 08:14:41;;;;;;;0.68;0.40;;;8.80;99.90;;;;;;21077713;28;20477;-57
2022/11/11 08:25:02;;;;;;;0.55;0.40;;;9.80;99.90;;;;;;21077986;28;20036;-61
2022/11/11 08:35:23;;;;;;;1.50;0.70;;;10.70;99.90;;;;;;21060072;28;20062;-61
2022/11/11 08:45:44;;;;;;;0.60;0.50;;;11.50;99.90;;;;;;21059900;28;20438;-62
2022/11/11 08:56:07;;;;;;;0.80;0.40;;;11.90;99.90;;;;;;21074659;28;20082;-59
2022/11/11 09:06:28;;;;;;;0.63;0.40;;;12.20;99.90;;;;;;21057806;28;20546;-60
2022/11/11 09:16:49;;;;;;;1.17;0.55;;;12.90;99.90;;;;;;21071009;28;20040;-59
2022/11/11 09:27:10;;;;;;;0.52;0.40;;;13.80;99.90;;;;;;21055449;28;20093;-59
2022/11/11 09:37:31;;;;;;;1.05;0.50;;;14.60;99.90;;;;;;21055505;28;20394;-61
2022/11/11 09:48:26;;;;;;;0.70;0.50;;;15.00;99.90;;;;;;21068797;28;20032;-61
2022/11/11 09:58:58;;;;;;;0.82;0.43;;;15.30;99.90;;;;;;21070925;28;20032;-59
2022/11/11 10:09:30;;;;;;;0.50;0.30;;;14.90;99.90;;;;;;21029445;28;20153;-60
2022/11/11 10:20:14;;;;;;;0.40;0.30;;;14.70;99.90;;;;;;20988220;28;20036;-62
2022/11/11 10:30:35;;;;;;;0.65;0.38;;;14.60;99.90;;;;;;21057880;28;20431;-62
2022/11/11 10:41:20;;;;;;;0.70;0.30;;;14.50;99.90;;;;;;21061294;28;20091;-64
2022/11/11 10:51:45;;;;;;;0.50;0.40;;;15.00;99.90;;;;;;21021557;28;20102;-60
2022/11/11 11:02:14;;;;;;;1.33;0.60;;;15.20;99.90;;;;;;21053727;28;20550;-60
2022/11/11 11:12:51;;;;;;;0.90;0.68;;;15.20;99.90;;;;;;21066863;28;20481;-65
2022/11/11 11:23:13;;;;;;;1.20;0.70;;;15.20;99.90;;;;;;21055679;28;20036;-60
2022/11/11 11:33:54;;;;;;;1.70;0.65;;;15.00;99.90;;;;;;21051446;28;20078;-67
2022/11/11 11:44:38;;;;;;;1.23;0.90;;;14.40;99.90;;;;;;20989782;28;20414;-67
2022/11/11 11:55:14;;;;;;;2.88;1.05;;;13.80;99.90;;;;;;21044465;28;20056;-67
2022/11/11 12:05:41;;;;;;;1.63;1.40;;;13.60;99.90;;;;;;21062491;28;20393;-60
2022/11/11 12:16:08;;;;;;;1.98;1.45;;;13.90;99.90;;;;;;21062048;28;20032;-66
2022/11/11 12:26:50;;;;;;;1.70;1.60;;;14.10;99.90;;;;;;21061062;28;20389;-65
2022/11/11 12:37:32;;;;;;;1.80;1.40;;;14.20;99.90;;;;;;21060221;28;20039;-65
2022/11/11 12:48:08;;;;;;;1.88;1.67;;;14.10;99.90;;;;;;21004374;28;20032;-60
2022/11/11 12:58:39;;;;;;;2.45;1.50;;;14.40;99.90;;;;;;21047718;28;20039;-61
2022/11/11 13:09:03;;;;;;;1.77;1.65;;;14.50;99.90;;;;;;21057940;28;20097;-68
2022/11/11 13:19:40;;;;;;;1.60;1.50;;;14.20;99.90;;;;;;21056790;28;20040;-60
2022/11/11 13:30:24;;;;;;;2.40;1.80;;;13.90;99.90;;;;;;21071216;28;20032;-58
2022/11/11 13:40:45;;;;;;;4.55;1.85;;;13.70;99.90;;;;;;21072835;28;20043;-66
2022/11/11 13:51:21;;;;;;;3.33;1.90;;;13.30;99.90;;;;;;21070950;28;20409;-59
2022/11/11 14:01:42;;;;;;;2.20;1.58;;;12.90;99.90;;;;;;21058817;28;20036;-60
2022/11/11 14:12:34;;;;;;;2.67;1.80;;;12.60;99.90;;;;;;21053200;28;20113;-60
2022/11/11 14:23:21;;;;;;;1.92;1.65;;;12.20;99.90;;;;;;21052469;28;20036;-60
2022/11/11 14:34:07;;;;;;;2.00;1.70;;;11.90;99.90;;;;;;21065008;28;20085;-65
2022/11/11 14:44:30;;;;;;;3.35;2.05;;;11.60;99.90;;;;;;21034387;28;20033;-56
2022/11/11 14:55:10;;;;;;;4.00;2.63;;;11.10;99.90;;;;;;21031759;28;20382;-65
2022/11/11 15:05:59;;;;;;;2.38;1.95;;;10.60;99.90;;;;;;21050683;28;20077;-58
2022/11/11 15:16:46;;;;;;;2.88;1.80;;;10.20;99.90;;;;;;21050976;28;20374;-64
2022/11/11 15:27:39;;;;;;;3.65;1.70;;;9.70;99.90;;;;;;21059651;28;20102;-63
2022/11/11 15:38:04;;;;;;;2.60;1.02;;;9.20;99.90;;;;;;21113299;28;20089;-57
2022/11/11 15:48:45;;;;;;;1.75;0.30;;;8.70;99.90;;;;;;21064108;28;20093;-64
2022/11/11 15:59:22;;;;;;;0.57;0.10;;;8.10;99.90;;;;;;21063388;28;20463;-63
2022/11/11 16:09:44;;;;;;;0.40;0.20;;;7.60;99.90;;;;;;21058344;28;20481;-57
2022/11/11 16:20:13;;;;;;;0.47;0.13;;;7.30;99.90;;;;;;21069330;28;20097;-56
2022/11/11 16:30:36;;;;;;;1.35;0.10;;;7.00;99.90;;;;;;21145066;28;20093;-56
2022/11/11 16:40:58;;;;;;;1.40;0.28;;;7.10;99.90;;;;;;21086129;28;20036;-65
2022/11/11 16:51:36;;;;;;;0.10;0.10;;;6.90;99.90;;;;;;21059225;28;20489;-64
2022/11/11 17:01:57;;;;;;;0.35;0.10;;;6.70;99.90;;;;;;21058392;28;20040;-65
2022/11/11 17:12:30;;;;;;;0.10;0.00;;;6.70;99.90;;;;;;21125593;28;20085;-66
2022/11/11 17:22:56;;;;;;;0.25;0.13;;;6.50;99.90;;;;;;21122405;28;20028;-65
2022/11/11 17:33:17;;;;;;;4.65;0.10;;;6.40;99.90;;;;;;21140287;28;20040;-65
2022/11/11 17:43:40;;;;;;;0.00;0.00;;;6.40;99.90;;;;;;21060757;28;20473;-54
2022/11/11 17:54:01;;;;;;;0.43;0.00;;;6.50;99.90;;;;;;21094425;28;20093;-57
2022/11/11 18:04:22;;;;;;;;;;;6.70;99.90;;;;;;21105127;28;20032;-65
2022/11/11 18:14:43;;;;;;;0.10;0.10;;;6.70;99.90;;;;;;21137370;28;19976;-59
2022/11/11 18:25:04;;;;;;;;;;;6.60;99.90;;;;;;21088030;28;20093;-54
2022/11/11 18:35:25;;;;;;;2.70;0.10;;;6.40;99.90;;;;;;21062084;28;20321;-65
2022/11/11 18:45:46;;;;;;;0.38;0.10;;;6.20;99.90;;;;;;21090496;28;20040;-55
2022/11/11 18:56:14;;;;;;;2.47;0.15;;;6.30;99.90;;;;;;20981879;28;20443;-57
2022/11/11 19:06:37;;;;;;;0.38;0.10;;;6.40;99.90;;;;;;20984015;28;20067;-65
2022/11/11 19:16:58;;;;;;;0.90;0.13;;;6.50;99.90;;;;;;20983194;28;20547;-65
2022/11/11 19:27:19;;;;;;;0.28;0.10;;;6.30;99.90;;;;;;20966402;28;20062;-56
2022/11/11 19:37:41;;;;;;;0.03;0.00;;;6.20;99.90;;;;;;20981589;28;20040;-65
2022/11/11 19:48:02;;;;;;;0.03;0.00;;;6.40;99.90;;;;;;20980520;28;20040;-65
2022/11/11 19:58:24;;;;;;;0.10;0.00;;;6.50;99.90;;;;;;20979853;28;20086;-56
2022/11/11 20:08:46;;;;;;;0.32;0.00;;;6.20;99.90;;;;;;21011446;28;20436;-65
2022/11/11 20:19:09;;;;;;;1.55;0.00;;;6.00;99.90;;;;;;20964567;28;20032;-56
2022/11/11 20:29:31;;;;;;;0.10;0.00;;;5.90;99.90;;;;;;20895185;28;20098;-57
2022/11/11 20:39:53;;;;;;;0.13;0.00;;;5.80;99.90;;;;;;20941275;28;20036;-66
2022/11/11 20:50:15;;;;;;;0.68;0.00;;;5.90;99.90;;;;;;21058931;28;20036;-66
2022/11/11 21:00:36;;;;;;;1.10;0.00;;;6.10;99.90;;;;;;21058928;28;20085;-66
2022/11/11 21:10:59;;;;;;;1.13;0.00;;;6.10;99.90;;;;;;21057682;28;20032;-57
2022/11/11 21:21:29;;;;;;;0.08;0.00;;;6.20;99.90;;;;;;21057367;28;20469;-65
2022/11/11 21:31:50;;;;;;;0.00;0.00;;;6.10;99.90;;;;;;21055606;28;20106;-56
2022/11/11 21:42:11;;;;;;;1.25;0.00;;;6.00;99.90;;;;;;21055351;28;20044;-55
2022/11/11 21:52:32;;;;;;;0.20;0.00;;;6.20;99.90;;;;;;21046338;28;20043;-57
2022/11/11 22:02:53;;;;;;;2.33;0.08;;;6.50;99.90;;;;;;21032432;28;20474;-66
2022/11/11 22:13:14;;;;;;;0.00;0.00;;;6.70;99.90;;;;;;21045099;28;20044;-66
2022/11/11 22:23:38;;;;;;;0.03;0.00;;;6.70;99.90;;;;;;21052958;28;20032;-57
2022/11/11 22:34:05;;;;;;;0.00;0.00;;;6.90;99.90;;;;;;21051880;28;20028;-66
2022/11/11 22:44:29;;;;;;;0.00;0.00;;;7.10;99.90;;;;;;21017952;28;20036;-66
2022/11/11 22:54:50;;;;;;;1.52;0.00;;;7.00;99.90;;;;;;21028044;28;20048;-56
2022/11/11 23:05:11;;;;;;;0.65;0.00;;;6.90;99.90;;;;;;21051291;28;20048;-57
2022/11/11 23:15:32;;;;;;;;;;;6.80;99.90;;;;;;21051439;28;20028;-55
2022/11/11 23:25:54;;;;;;;;;;;6.90;99.90;;;;;;21050714;28;19911;-56
2022/11/11 23:36:16;;;;;;;;;;;6.80;99.90;;;;;;21050879;28;19919;-57
2022/11/11 23:46:37;;;;;;;;;;;6.80;99.90;;;;;;21058561;28;19912;-56
2022/11/11 23:56:57;;;;;;;;;;;6.80;99.90;;;;;;21064372;28;19927;-58
